Time;durP1;ratioP1;P1;durP2;ratioP2;P2;SDS_P1;SDS_P2;PMS_P1;PMS_P2;Temp;Humidity;BMP_temperature;BMP_pressure;BME280_temperature;BME280_humidity;BME280_pressure;Samples;Min_cycle;Max_cycle;Signal;HPM_P1;HPM_P2
2022/08/16 00:01:30;;;;;;;;;;;;;;;;;;;;;
2022/08/16 00:12:41;;;;;;;;;;;;;;;;;;;;;
2022/08/16 00:15:37;;;;;;;;;23.67;21.67;;;;;-149.69;100.00;58464.25;4705004;30;67415;-94
2022/08/16 03:51:25;;;;;;;;;;;;;;;;;;;;;
2022/08/16 04:20:24;;;;;;;;;;;;;;;;;;;;;
2022/08/16 04:23:10;;;;;;;;;;;;;;;;;;;;;
2022/08/16 04:26:20;;;;;;;;;;;;;;;;;;;;;
2022/08/16 04:28:53;;;;;;;;;22.67;19.67;;;;;;;;5129637;27;69123;-95
2022/08/16 04:31:24;;;;;;;;;20.67;19.00;;;;;;;;5133273;27;47026;-95
2022/08/16 04:34:10;;;;;;;;;20.67;20.67;;;;;;;;5132921;27;45654;-95
2022/08/16 04:36:52;;;;;;;;;;;;;;;;;;;;;
2022/08/16 04:42:37;;;;;;;;;20.67;17.67;;;;;;;;5030456;28;45886;-96
2022/08/16 04:45:03;;;;;;;;;22.33;19.33;;;;;;;;5016332;28;45398;-94
2022/08/16 04:47:30;;;;;;;;;19.00;19.00;;;;;;;;5013117;28;45564;-95
2022/08/16 04:49:56;;;;;;;;;22.00;20.00;;;;;;;;5013533;28;45569;-95
2022/08/16 04:52:21;;;;;;;;;25.33;22.67;;;;;;;;5013481;28;47115;-94
2022/08/16 05:10:06;;;;;;;;;23.33;20.67;;;;;;;;4888745;29;45433;-94
2022/08/16 05:13:13;;;;;;;;;;;;;;;;;;;;;
2022/08/16 05:16:14;;;;;;;;;21.67;21.67;;;;;;;;4937945;28;75456;-95
2022/08/16 05:21:52;;;;;;;;;17.00;16.67;;;;;;;;4916434;28;45469;-95
2022/08/16 05:24:59;;;;;;;;;;;;;;;;;;;;;
2022/08/16 05:30:29;;;;;;;;;16.00;16.00;;;;;;;;4880731;29;45416;-94
2022/08/16 05:40:24;;;;;;;;;;;;;;;;;;;;;
2022/08/16 05:46:20;;;;;;;;;;;;;;;;;;;;;
2022/08/16 05:49:19;;;;;;;;;;;;;;;;;;;;;
2022/08/16 05:55:32;;;;;;;;;;;;;;;;;;;;;
2022/08/16 06:04:06;;;;;;;;;13.00;13.00;;;;;;;;4842145;29;46103;-94
2022/08/16 06:09:58;;;;;;;;;;;;;;;;;;;;;
2022/08/16 06:12:49;;;;;;;;;12.00;12.00;;;;;;;;4891376;28;68413;-95
2022/08/16 06:15:19;;;;;;;;;12.33;12.00;;;;;;;;4935163;28;47017;-94
2022/08/16 06:17:45;;;;;;;;;12.67;12.33;;;;;;;;4975478;28;45835;-94
2022/08/16 06:20:36;;;;;;;;;12.00;12.00;;;;;;;;5019088;28;46019;-94
2022/08/16 06:23:07;;;;;;;;;12.33;12.33;;;;;;;;5039080;28;45700;-94
2022/08/16 06:25:32;;;;;;;;;12.67;10.33;;;;;;;;5059219;28;47630;-95
2022/08/16 06:28:05;;;;;;;;;8.67;7.67;;;;;;;;5058490;28;45448;-95
2022/08/16 06:30:32;;;;;;;;;14.67;14.67;;;;;;;;5058171;28;45401;-94
2022/08/16 06:33:35;;;;;;;;;9.00;9.00;;;;;;;;5057831;28;45721;-95
2022/08/16 06:36:00;;;;;;;;;13.67;10.33;;;;;;;;5073150;27;46881;-93
2022/08/16 06:41:37;;;;;;;;;12.67;10.00;;;;;;;;4982228;28;45839;-89
2022/08/16 06:44:02;;;;;;;;;12.00;11.00;;;;;;;;5034814;28;45503;-90
2022/08/16 06:46:32;;;;;;;;;16.00;13.67;;;;;;;;5049442;28;48039;-91
2022/08/16 06:48:58;;;;;;;;;13.33;11.33;;;;;;;;5050853;28;45382;-92
2022/08/16 06:51:23;;;;;;;;;14.00;14.00;;;;;;;;5036582;28;45344;-91
2022/08/16 06:53:48;;;;;;;;;17.33;13.67;;;;;;;;5049049;28;45314;-88
2022/08/16 06:56:13;;;;;;;;;12.00;12.00;;;;;;;;5050789;28;47241;-90
2022/08/16 06:58:39;;;;;;;;;12.67;11.33;;;;;;;;5048359;28;45786;-90
2022/08/16 07:01:04;;;;;;;;;12.33;11.67;;;;;;;;5050065;28;45532;-91
2022/08/16 07:03:30;;;;;;;;;12.33;12.00;;;;;;;;5035114;28;45603;-92
2022/08/16 07:05:55;;;;;;;;;8.33;8.33;;;;;;;;5032102;28;48727;-92
2022/08/16 07:08:22;;;;;;;;;16.67;12.00;;;;;;;;5049542;28;45703;-92
2022/08/16 07:10:47;;;;;;;;;11.67;10.00;;;;;;;;5034272;28;45379;-90
2022/08/16 07:13:12;;;;;;;;;11.67;11.67;;;;;;;;5030396;28;47129;-93
2022/08/16 07:15:38;;;;;;;;;10.67;10.00;;;;;;;;5050556;28;46913;-90
2022/08/16 07:18:04;;;;;;;;;10.67;10.33;;;;;;;;5030747;28;45692;-91
2022/08/16 07:20:29;;;;;;;;;13.00;12.33;;;;;;;;5034953;28;45293;-91
2022/08/16 07:22:56;;;;;;;;;10.00;8.00;;;;;;;;5048677;28;45382;-89
2022/08/16 07:25:21;;;;;;;;;11.67;11.00;;;;;;;;5034338;28;45734;-88
2022/08/16 07:27:48;;;;;;;;;10.33;10.33;;;;;;;;5034123;28;45384;-87
2022/08/16 07:30:14;;;;;;;;;10.00;9.33;;;;;;;;5033195;28;45468;-88
2022/08/16 07:32:39;;;;;;;;;10.33;9.67;;;;;;;;5034097;28;45667;-88
2022/08/16 07:35:05;;;;;;;;;9.67;9.67;;;;;;;;5028748;28;45660;-89
2022/08/16 07:37:30;;;;;;;;;9.67;9.67;;;;;;;;5033922;28;45560;-91
2022/08/16 07:39:55;;;;;;;;;10.00;9.67;;;;;;;;5027409;28;46024;-91
2022/08/16 07:42:21;;;;;;;;;12.00;11.33;;;;;;;;5038419;28;45526;-91
2022/08/16 07:44:46;;;;;;;;;12.00;9.67;;;;;;;;5032657;28;48210;-90
2022/08/16 07:47:11;;;;;;;;;10.33;10.33;;;;;;;;5029744;28;45612;-89
2022/08/16 07:49:36;;;;;;;;;13.00;9.67;;;;;;;;5017395;28;45610;-86
2022/08/16 07:52:02;;;;;;;;;11.33;11.33;;;;;;;;5014060;28;45402;-89
2022/08/16 07:54:27;;;;;;;;;12.00;12.00;;;;;;;;5023140;28;48079;-88
2022/08/16 07:56:52;;;;;;;;;14.00;12.67;;;;;;;;5034307;28;45305;-88
2022/08/16 07:59:18;;;;;;;;;15.67;14.67;;;;;;;;5031903;28;45680;-87
2022/08/16 08:01:43;;;;;;;;;13.00;12.00;;;;;;;;5033059;28;45344;-88
2022/08/16 08:04:11;;;;;;;;;15.33;15.33;;;;;;;;5033380;28;46417;-87
2022/08/16 08:06:37;;;;;;;;;11.33;10.00;;;;;;;;5034756;28;45462;-94
2022/08/16 08:09:03;;;;;;;;;11.33;10.00;;;;;;;;5033919;28;45534;-94
2022/08/16 08:11:28;;;;;;;;;8.67;8.67;;;;;;;;5032408;28;45509;-94
2022/08/16 08:13:54;;;;;;;;;16.00;14.67;;;;;;;;5033277;28;47465;-94
2022/08/16 08:16:20;;;;;;;;;11.00;11.00;;;;;;;;5031875;28;45441;-93
2022/08/16 08:18:47;;;;;;;;;11.00;11.00;;;;;;;;5034100;28;45341;-92
2022/08/16 08:21:12;;;;;;;;;16.00;14.33;;;;;;;;5033239;28;45435;-93
2022/08/16 08:23:38;;;;;;;;;12.00;12.00;;;;;;;;5031526;28;47972;-92
2022/08/16 08:26:03;;;;;;;;;14.33;11.67;;;;;;;;5026791;28;46046;-92
2022/08/16 08:28:30;;;;;;;;;10.67;10.33;;;;;;;;5033426;28;45697;-92
2022/08/16 08:30:55;;;;;;;;;12.00;10.33;;;;;;;;5034495;28;45502;-90
2022/08/16 08:33:20;;;;;;;;;9.00;9.00;;;;;;;;5028334;28;47027;-91
2022/08/16 08:35:46;;;;;;;;;10.00;10.00;;;;;;;;5012747;28;45647;-90
2022/08/16 08:38:11;;;;;;;;;11.33;10.00;;;;;;;;5014190;28;45426;-92
2022/08/16 08:40:36;;;;;;;;;14.33;12.67;;;;;;;;5033323;28;45554;-91
2022/08/16 08:43:01;;;;;;;;;12.00;11.67;;;;;;;;5048913;28;48455;-91
2022/08/16 08:45:28;;;;;;;;;17.33;15.00;;;;;;;;5034040;28;45316;-92
2022/08/16 08:47:55;;;;;;;;;13.67;13.00;;;;;;;;5015643;28;45343;-91
2022/08/16 08:50:21;;;;;;;;;15.67;14.00;;;;;;;;5028906;28;45508;-88
2022/08/16 08:52:47;;;;;;;;;14.33;13.00;;;;;;;;5024650;28;47143;-92
2022/08/16 08:55:13;;;;;;;;;14.33;14.00;;;;;;;;5050017;28;46018;-88
2022/08/16 08:57:42;;;;;;;;;11.67;11.67;;;;;;;;5036230;28;45562;-90
2022/08/16 09:00:09;;;;;;;;;10.00;10.00;;;;;;;;5048569;28;45707;-91
2022/08/16 09:02:34;;;;;;;;;8.00;8.00;;;;;;;;5052285;28;46303;-92
2022/08/16 09:04:59;;;;;;;;;12.67;12.67;;;;;;;;5036746;28;45470;-92
2022/08/16 09:07:24;;;;;;;;;10.00;10.00;;;;;;;;5052901;28;45344;-90
2022/08/16 09:09:49;;;;;;;;;15.33;12.00;;;;;;;;5034324;28;45356;-91
2022/08/16 09:12:17;;;;;;;;;16.00;12.00;;;;;;;;5039640;28;48417;-91
2022/08/16 09:14:44;;;;;;;;;9.33;9.33;;;;;;;;5036358;28;45341;-90
2022/08/16 09:17:09;;;;;;;;;12.00;11.33;;;;;;;;5052396;28;45531;-91
2022/08/16 09:19:36;;;;;;;;;16.00;12.00;;;;;;;;5048963;28;45712;-91
2022/08/16 09:22:02;;;;;;;;;10.33;10.33;;;;;;;;5036337;28;46405;-91
2022/08/16 09:24:27;;;;;;;;;10.67;10.67;;;;;;;;5027804;28;45584;-92
2022/08/16 09:26:53;;;;;;;;;12.33;12.00;;;;;;;;5052061;28;45484;-91
2022/08/16 09:29:19;;;;;;;;;12.00;11.00;;;;;;;;5032984;28;45580;-90
2022/08/16 09:31:45;;;;;;;;;13.00;11.00;;;;;;;;5036367;28;46369;-91
2022/08/16 09:34:10;;;;;;;;;7.33;7.33;;;;;;;;5032513;28;45581;-92
2022/08/16 09:36:36;;;;;;;;;10.67;10.67;;;;;;;;5041445;28;45522;-91
2022/08/16 09:39:02;;;;;;;;;10.00;10.00;;;;;;;;5055200;28;46862;-90
2022/08/16 09:41:28;;;;;;;;;8.67;7.67;;;;;;;;5036259;28;45406;-92
2022/08/16 09:43:53;;;;;;;;;9.00;8.00;;;;;;;;5035365;28;45394;-93
2022/08/16 09:46:18;;;;;;;;;10.67;9.00;;;;;;;;5051695;28;45529;-92
2022/08/16 09:48:43;;;;;;;;;12.67;10.67;;;;;;;;5033140;28;45643;-91
2022/08/16 09:51:09;;;;;;;;;9.00;9.00;;;;;;;;5034013;28;45455;-89
2022/08/16 09:53:34;;;;;;;;;11.67;10.00;;;;;;;;5032238;28;45503;-91
2022/08/16 09:56:00;;;;;;;;;9.33;9.33;;;;;;;;5035790;28;46812;-91
2022/08/16 09:58:26;;;;;;;;;8.67;8.67;;;;;;;;5036397;28;45806;-90
2022/08/16 10:00:53;;;;;;;;;8.67;8.67;;;;;;;;5031282;28;47166;-91
2022/08/16 10:03:19;;;;;;;;;10.00;10.00;;;;;;;;5026260;28;45505;-91
2022/08/16 10:05:44;;;;;;;;;8.00;8.00;;;;;;;;5022842;28;45540;-91
2022/08/16 10:08:10;;;;;;;;;9.33;9.33;;;;;;;;5019660;28;45646;-91
2022/08/16 10:10:35;;;;;;;;;9.00;9.00;;;;;;;;5033273;28;46050;-91
2022/08/16 10:13:13;;;;;;;;;11.00;10.67;;;;;;;;5022277;28;45436;-92
2022/08/16 10:15:46;;;;;;;;;9.00;9.00;;;;;;;;5050085;28;45475;-91
2022/08/16 10:18:12;;;;;;;;;9.67;9.33;;;;;;;;5030853;28;45481;-94
2022/08/16 10:20:39;;;;;;;;;9.67;9.67;;;;;;;;5034986;28;45462;-92
2022/08/16 10:23:07;;;;;;;;;8.67;8.00;;;;;;;;5035977;28;45488;-92
2022/08/16 10:25:33;;;;;;;;;8.00;8.00;;;;;;;;5036571;28;45444;-93
2022/08/16 10:27:59;;;;;;;;;10.00;8.00;;;;;;;;5048891;28;45550;-93
2022/08/16 10:30:24;;;;;;;;;9.00;9.00;;;;;;;;5033660;28;47225;-95
2022/08/16 10:32:49;;;;;;;;;9.33;9.00;;;;;;;;5036064;28;45414;-88
2022/08/16 10:35:14;;;;;;;;;8.00;7.67;;;;;;;;5038558;28;45462;-89
2022/08/16 10:37:40;;;;;;;;;10.33;9.33;;;;;;;;5028380;28;45399;-89
2022/08/16 10:40:06;;;;;;;;;9.00;9.00;;;;;;;;5043919;28;47176;-91
2022/08/16 10:42:31;;;;;;;;;13.33;10.33;;;;;;;;5045676;28;45925;-91
2022/08/16 10:44:57;;;;;;;;;10.67;10.67;;;;;;;;5031436;28;45485;-96
2022/08/16 10:47:22;;;;;;;;;18.33;16.33;;;;;;;;5035357;28;45450;-92
2022/08/16 10:49:47;;;;;;;;;13.67;13.67;;;;;;;;5030625;28;46592;-91
2022/08/16 10:52:13;;;;;;;;;15.00;10.75;;;;;;;;5045033;28;45463;-92
2022/08/16 10:54:39;;;;;;;;;10.33;10.33;;;;;;;;5041572;28;45481;-91
2022/08/16 10:57:04;;;;;;;;;14.33;14.00;;;;;;;;5033867;28;45343;-91
2022/08/16 10:59:32;;;;;;;;;23.33;21.00;;;;;;;;5033752;28;46623;-93
2022/08/16 11:01:58;;;;;;;;;9.33;9.33;;;;;;;;5052062;28;45329;-96
2022/08/16 11:04:25;;;;;;;;;13.00;9.33;;;;;;;;5051268;28;45298;-95
2022/08/16 11:06:50;;;;;;;;;8.00;8.00;;;;;;;;5035590;28;45503;-95
2022/08/16 11:09:16;;;;;;;;;10.33;8.00;;;;;;;;5030347;28;47046;-95
2022/08/16 11:11:41;;;;;;;;;9.00;9.00;;;;;;;;5030620;28;45507;-88
2022/08/16 11:14:06;;;;;;;;;8.00;8.00;;;;;;;;5014534;28;45595;-96
2022/08/16 11:16:32;;;;;;;;;11.67;11.00;;;;;;;;5041631;28;45565;-92
2022/08/16 11:18:57;;;;;;;;;10.00;10.00;;;;;;;;5043367;28;47809;-88
2022/08/16 11:21:24;;;;;;;;;14.00;13.00;;;;;;;;5015980;28;45373;-93
2022/08/16 11:23:50;;;;;;;;;10.00;8.33;;;;;;;;5015667;28;45522;-96
2022/08/16 11:26:15;;;;;;;;;9.00;9.00;;;;;;;;5029862;28;45516;-96
2022/08/16 11:28:40;;;;;;;;;10.00;10.00;;;;;;;;5014368;28;48143;-94
2022/08/16 11:31:06;;;;;;;;;8.00;8.00;;;;;;;;5014456;28;45504;-94
2022/08/16 11:33:31;;;;;;;;;11.67;10.00;;;;;;;;5014762;28;45446;-96
2022/08/16 11:35:56;;;;;;;;;9.00;9.00;;;;;;;;5031465;28;45379;-96
2022/08/16 11:38:22;;;;;;;;;12.00;9.67;;;;;;;;5035970;28;48174;-95
2022/08/16 11:40:50;;;;;;;;;10.67;10.00;;;;;;;;5033490;28;45393;-95
2022/08/16 11:43:16;;;;;;;;;11.33;9.00;;;;;;;;5029986;28;45452;-92
2022/08/16 11:45:41;;;;;;;;;13.00;12.00;;;;;;;;5046595;28;45510;-90
2022/08/16 11:48:06;;;;;;;;;9.00;9.00;;;;;;;;5021904;28;46837;-89
2022/08/16 11:50:32;;;;;;;;;12.33;11.33;;;;;;;;5028234;28;45780;-89
2022/08/16 11:52:58;;;;;;;;;13.00;10.00;;;;;;;;5031527;28;45366;-92
2022/08/16 11:55:24;;;;;;;;;9.67;9.00;;;;;;;;5031649;28;45616;-92
2022/08/16 11:57:49;;;;;;;;;7.67;7.67;;;;;;;;5027808;28;47037;-91
2022/08/16 12:00:15;;;;;;;;;10.00;10.00;;;;;;;;5027802;28;45564;-91
2022/08/16 12:02:41;;;;;;;;;9.67;8.67;;;;;;;;5030895;28;45489;-93
2022/08/16 12:05:07;;;;;;;;;10.67;9.67;;;;;;;;5031386;28;45706;-93
2022/08/16 12:07:33;;;;;;;;;8.33;8.33;;;;;;;;5034480;28;45451;-95
2022/08/16 12:09:58;;;;;;;;;9.33;9.33;;;;;;;;5048187;28;45546;-90
2022/08/16 12:12:23;;;;;;;;;9.67;9.67;;;;;;;;5030337;28;46366;-96
2022/08/16 12:14:49;;;;;;;;;9.67;7.67;;;;;;;;5033494;28;45383;-93
2022/08/16 12:17:14;;;;;;;;;9.33;9.00;;;;;;;;5050016;28;47322;-95
2022/08/16 12:19:40;;;;;;;;;9.00;9.00;;;;;;;;5043632;28;45771;-95
2022/08/16 12:22:06;;;;;;;;;8.00;8.00;;;;;;;;5030923;28;46389;-92
2022/08/16 12:24:31;;;;;;;;;10.00;9.00;;;;;;;;5030092;28;45605;-92
2022/08/16 12:26:57;;;;;;;;;10.00;10.00;;;;;;;;5042307;28;46348;-93
2022/08/16 12:29:22;;;;;;;;;10.67;9.67;;;;;;;;5047793;28;45770;-91
2022/08/16 12:31:48;;;;;;;;;8.33;8.33;;;;;;;;5036396;28;45508;-93
2022/08/16 12:34:13;;;;;;;;;12.00;10.00;;;;;;;;5037219;28;45501;-93
2022/08/16 12:36:39;;;;;;;;;8.00;7.00;;;;;;;;5037472;28;46038;-91
2022/08/16 12:39:05;;;;;;;;;11.00;8.67;;;;;;;;5044004;28;45450;-91
2022/08/16 12:41:31;;;;;;;;;9.33;9.00;;;;;;;;5050765;28;45338;-91
2022/08/16 12:43:57;;;;;;;;;9.00;9.00;;;;;;;;5038626;28;45537;-88
2022/08/16 12:46:22;;;;;;;;;9.33;9.33;;;;;;;;5040015;28;46697;-90
2022/08/16 12:48:59;;;;;;;;;12.67;12.67;;;;;;;;5054738;28;45553;-86
2022/08/16 12:51:27;;;;;;;;;8.67;8.67;;;;;;;;5033048;28;45406;-88
2022/08/16 12:53:54;;;;;;;;;11.00;10.00;;;;;;;;5025319;28;45776;-89
2022/08/16 12:56:22;;;;;;;;;11.00;10.00;;;;;;;;5033360;28;45630;-88
2022/08/16 12:58:49;;;;;;;;;10.67;10.33;;;;;;;;5036707;28;45391;-88
2022/08/16 13:01:14;;;;;;;;;10.67;10.67;;;;;;;;5041427;28;45802;-90
2022/08/16 13:03:40;;;;;;;;;9.33;9.33;;;;;;;;5043937;28;45400;-87
2022/08/16 13:06:05;;;;;;;;;10.00;10.00;;;;;;;;5043294;28;45550;-90
2022/08/16 13:08:30;;;;;;;;;12.00;11.00;;;;;;;;5036526;28;45532;-90
2022/08/16 13:10:55;;;;;;;;;10.00;10.00;;;;;;;;5043873;28;45486;-87
2022/08/16 13:13:25;;;;;;;;;9.33;9.33;;;;;;;;5042308;28;45372;-90
2022/08/16 13:15:56;;;;;;;;;11.00;11.00;;;;;;;;5052899;28;48029;-92
2022/08/16 13:18:22;;;;;;;;;9.33;9.33;;;;;;;;5036143;28;45847;-91
2022/08/16 13:20:47;;;;;;;;;12.33;12.33;;;;;;;;5053424;28;45247;-90
2022/08/16 13:23:13;;;;;;;;;10.00;10.00;;;;;;;;5030757;28;45405;-86
2022/08/16 13:25:39;;;;;;;;;11.67;11.00;;;;;;;;5036430;28;46238;-90
2022/08/16 13:28:05;;;;;;;;;12.00;12.00;;;;;;;;5036467;28;45415;-89
2022/08/16 13:30:33;;;;;;;;;11.67;10.00;;;;;;;;5036090;28;45357;-88
2022/08/16 13:32:58;;;;;;;;;10.00;10.00;;;;;;;;5036593;28;45455;-88
2022/08/16 13:35:23;;;;;;;;;10.67;9.67;;;;;;;;5033981;28;45520;-90
2022/08/16 13:37:48;;;;;;;;;11.00;9.33;;;;;;;;5034060;28;45457;-89
2022/08/16 13:40:14;;;;;;;;;11.00;10.00;;;;;;;;5036277;28;45751;-89
2022/08/16 13:42:40;;;;;;;;;9.00;9.00;;;;;;;;5068061;28;45539;-89
2022/08/16 13:45:09;;;;;;;;;11.00;10.00;;;;;;;;5037929;28;47127;-87
2022/08/16 13:47:34;;;;;;;;;8.33;8.33;;;;;;;;5033932;28;45519;-88
2022/08/16 13:49:59;;;;;;;;;11.00;10.33;;;;;;;;5034883;28;45536;-87
2022/08/16 13:52:24;;;;;;;;;13.33;11.33;;;;;;;;5051345;28;45513;-90
2022/08/16 13:54:50;;;;;;;;;22.00;21.00;;;;;;;;5051631;28;47055;-90
2022/08/16 13:57:15;;;;;;;;;10.67;10.00;;;;;;;;5033772;28;45748;-90
2022/08/16 13:59:42;;;;;;;;;12.00;11.00;;;;;;;;5034487;28;45408;-89
2022/08/16 14:02:07;;;;;;;;;10.00;10.00;;;;;;;;5036149;28;45512;-88
2022/08/16 14:04:33;;;;;;;;;10.00;9.67;;;;;;;;5035664;28;46441;-89
2022/08/16 14:07:00;;;;;;;;;9.00;9.00;;;;;;;;5051688;28;45706;-88
2022/08/16 14:09:26;;;;;;;;;11.33;11.00;;;;;;;;5046283;28;45485;-88
2022/08/16 14:11:51;;;;;;;;;11.67;11.00;;;;;;;;5052191;28;45785;-90
2022/08/16 14:14:16;;;;;;;;;14.00;14.00;;;;;;;;5047836;28;47078;-88
2022/08/16 14:16:41;;;;;;;;;14.00;13.00;;;;;;;;5025412;28;45507;-92
2022/08/16 14:19:06;;;;;;;;;10.00;10.00;;;;;;;;5034087;28;45537;-90
2022/08/16 14:21:32;;;;;;;;;14.00;11.00;;;;;;;;5018916;28;45411;-89
2022/08/16 14:23:58;;;;;;;;;11.00;10.00;;;;;;;;5027334;28;48093;-87
2022/08/16 14:26:23;;;;;;;;;10.33;10.33;;;;;;;;5022339;28;45330;-90
2022/08/16 14:28:51;;;;;;;;;11.33;11.33;;;;;;;;5051251;28;45388;-88
2022/08/16 14:31:17;;;;;;;;;9.67;8.67;;;;;;;;5036212;28;45597;-91
2022/08/16 14:33:43;;;;;;;;;9.00;9.00;;;;;;;;5034964;28;47041;-92
2022/08/16 14:36:09;;;;;;;;;11.00;11.00;;;;;;;;5035751;28;45786;-91
2022/08/16 14:38:34;;;;;;;;;10.33;10.33;;;;;;;;5034139;28;45688;-92
2022/08/16 14:40:59;;;;;;;;;11.00;10.00;;;;;;;;5034290;28;45696;-90
2022/08/16 14:43:24;;;;;;;;;12.67;12.00;;;;;;;;5046457;28;46298;-92
2022/08/16 14:45:50;;;;;;;;;10.00;10.00;;;;;;;;5039128;28;45420;-91
2022/08/16 14:48:16;;;;;;;;;12.00;10.00;;;;;;;;5045011;28;45774;-91
2022/08/16 14:50:41;;;;;;;;;11.67;10.33;;;;;;;;5035421;28;45520;-91
2022/08/16 14:53:08;;;;;;;;;9.00;9.00;;;;;;;;5021054;28;45427;-92
2022/08/16 14:55:34;;;;;;;;;9.67;9.67;;;;;;;;5036646;28;45342;-92
2022/08/16 14:58:00;;;;;;;;;9.00;9.00;;;;;;;;5037137;28;45426;-89
2022/08/16 15:00:26;;;;;;;;;10.00;10.00;;;;;;;;5036984;28;45682;-89
2022/08/16 15:02:52;;;;;;;;;10.67;10.00;;;;;;;;5036038;28;45702;-93
2022/08/16 15:05:18;;;;;;;;;10.67;10.67;;;;;;;;5034892;28;45389;-91
2022/08/16 15:07:44;;;;;;;;;11.00;10.00;;;;;;;;5038087;28;45471;-90
2022/08/16 15:10:10;;;;;;;;;9.00;9.00;;;;;;;;5037502;28;45429;-92
2022/08/16 15:12:35;;;;;;;;;13.33;13.33;;;;;;;;5038147;28;45439;-90
2022/08/16 15:15:01;;;;;;;;;11.00;10.00;;;;;;;;5058265;28;45355;-94
2022/08/16 15:17:27;;;;;;;;;10.67;10.33;;;;;;;;5060024;28;45279;-90
2022/08/16 15:19:52;;;;;;;;;10.67;9.00;;;;;;;;5040065;28;45534;-92
2022/08/16 15:22:25;;;;;;;;;11.67;11.00;;;;;;;;5045782;28;47185;-90
2022/08/16 15:24:57;;;;;;;;;15.00;12.00;;;;;;;;5029428;28;45526;-91
2022/08/16 15:27:23;;;;;;;;;10.67;10.00;;;;;;;;5032015;28;45520;-91
2022/08/16 15:29:48;;;;;;;;;11.00;11.00;;;;;;;;5046637;28;45359;-91
2022/08/16 15:32:13;;;;;;;;;11.00;9.33;;;;;;;;5030368;28;46351;-91
2022/08/16 15:34:43;;;;;;;;;14.00;13.33;;;;;;;;5033145;28;45764;-91
2022/08/16 15:37:09;;;;;;;;;10.00;10.00;;;;;;;;5030740;28;45357;-91
2022/08/16 15:39:35;;;;;;;;;10.00;10.00;;;;;;;;5031609;28;45445;-91
2022/08/16 15:42:02;;;;;;;;;10.00;10.00;;;;;;;;5029334;28;46473;-90
2022/08/16 15:44:34;;;;;;;;;10.00;10.00;;;;;;;;5033804;28;45793;-88
2022/08/16 15:47:00;;;;;;;;;12.33;9.33;;;;;;;;5050629;28;45861;-89
2022/08/16 15:49:26;;;;;;;;;10.67;10.67;;;;;;;;5030223;28;45507;-88
2022/08/16 15:51:52;;;;;;;;;9.67;9.67;;;;;;;;5033042;28;48323;-87
2022/08/16 15:54:17;;;;;;;;;10.33;10.00;;;;;;;;5048711;28;45596;-87
2022/08/16 15:56:42;;;;;;;;;12.00;11.00;;;;;;;;5029969;28;45485;-87
2022/08/16 15:59:07;;;;;;;;;13.00;11.67;;;;;;;;5032170;28;45672;-87
2022/08/16 16:01:33;;;;;;;;;5.00;5.00;;;;;;;;5033461;28;46223;-93
2022/08/16 16:03:58;;;;;;;;;3.33;3.33;;;;;;;;5034543;28;45518;-88
2022/08/16 16:06:24;;;;;;;;;3.67;3.67;;;;;;;;5033753;28;46333;-87
2022/08/16 16:08:49;;;;;;;;;3.67;3.00;;;;;;;;5032708;28;45725;-88
2022/08/16 16:11:15;;;;;;;;;2.00;2.00;;;;;;;;5034499;28;46324;-90
2022/08/16 16:13:41;;;;;;;;;3.67;3.67;;;;;;;;5032217;28;45698;-88
2022/08/16 16:16:08;;;;;;;;;4.67;4.00;;;;;;;;5033550;28;45780;-87
2022/08/16 16:18:33;;;;;;;;;7.67;7.00;;;;;;;;5048413;28;45456;-86
2022/08/16 16:21:00;;;;;;;;;5.33;5.33;;;;;;;;5038991;28;47071;-87
2022/08/16 16:23:28;;;;;;;;;8.33;7.33;;;;;;;;5030868;28;45554;-88
2022/08/16 16:25:54;;;;;;;;;7.00;4.33;;;;;;;;5031916;28;45609;-87
2022/08/16 16:28:20;;;;;;;;;7.00;6.00;;;;;;;;5047351;28;45529;-86
2022/08/16 16:30:46;;;;;;;;;8.67;7.33;;;;;;;;5024493;28;46653;-86
2022/08/16 16:33:16;;;;;;;;;12.00;12.00;;;;;;;;5025550;28;45396;-85
2022/08/16 16:35:42;;;;;;;;;13.33;12.67;;;;;;;;5042178;28;29223;-88
2022/08/16 16:38:07;;;;;;;;;11.00;11.00;;;;;;;;5040911;28;28471;-90
2022/08/16 16:40:34;;;;;;;;;10.33;10.33;;;;;;;;5033350;28;45337;-88
2022/08/16 16:43:00;;;;;;;;;6.33;6.33;;;;;;;;5031212;28;45495;-89
2022/08/16 16:45:26;;;;;;;;;11.33;11.00;;;;;;;;5029221;28;45517;-91
2022/08/16 16:47:51;;;;;;;;;10.33;10.33;;;;;;;;5032191;28;45379;-91
2022/08/16 16:50:16;;;;;;;;;10.00;8.00;;;;;;;;5029813;28;45286;-92
2022/08/16 16:52:42;;;;;;;;;6.33;6.33;;;;;;;;5048502;28;45717;-91
2022/08/16 16:55:08;;;;;;;;;5.67;5.67;;;;;;;;5034263;28;45573;-93
2022/08/16 17:00:17;;;;;;;;;6.67;5.33;;;;;;;;5029459;28;45504;-91
2022/08/16 17:02:42;;;;;;;;;7.33;6.00;;;;;;;;5030124;28;45634;-90
2022/08/16 17:05:07;;;;;;;;;4.33;4.33;;;;;;;;5046144;28;45433;-93
2022/08/16 17:07:33;;;;;;;;;5.00;5.00;;;;;;;;5044686;28;45272;-92
2022/08/16 17:09:58;;;;;;;;;7.33;6.00;;;;;;;;5032129;28;46153;-91
2022/08/16 17:12:24;;;;;;;;;6.00;4.67;;;;;;;;5050958;28;45435;-92
2022/08/16 17:14:50;;;;;;;;;7.33;5.00;;;;;;;;5034202;28;44721;-92
2022/08/16 17:17:15;;;;;;;;;5.00;5.00;;;;;;;;5057323;28;45655;-92
2022/08/16 17:19:41;;;;;;;;;8.00;6.00;;;;;;;;5039530;28;45554;-92
2022/08/16 17:22:07;;;;;;;;;7.67;7.00;;;;;;;;5047874;28;45708;-91
2022/08/16 17:24:32;;;;;;;;;6.00;6.00;;;;;;;;5072380;28;11380;-91
2022/08/16 17:27:00;;;;;;;;;5.33;5.33;;;;;;;;5084686;28;38384;-95
2022/08/16 17:29:26;;;;;;;;;9.00;7.00;;;;;;;;5060517;28;27901;-94
2022/08/16 17:31:51;;;;;;;;;5.00;5.00;;;;;;;;5051020;28;28805;-90
2022/08/16 17:34:16;;;;;;;;;9.33;8.33;;;;;;;;5065664;28;28684;-87
2022/08/16 17:36:42;;;;;;;;;6.33;5.67;;;;;;;;5055179;28;28585;-88
2022/08/16 17:39:08;;;;;;;;;7.00;7.00;;;;;;;;5055834;28;29542;-94
2022/08/16 17:41:35;;;;;;;;;8.00;7.00;;;;;;;;5053145;28;28471;-90
2022/08/16 17:44:00;;;;;;;;;7.67;6.67;;;;;;;;5047467;28;28518;-91
2022/08/16 17:46:25;;;;;;;;;6.33;6.00;;;;;;;;5061179;28;28437;-90
2022/08/16 17:48:50;;;;;;;;;7.00;7.00;;;;;;;;5051597;28;29548;-90
2022/08/16 17:51:16;;;;;;;;;6.00;6.00;;;;;;;;5073676;28;28435;-90
2022/08/16 17:53:42;;;;;;;;;6.67;6.67;;;;;;;;5051203;28;28325;-89
2022/08/16 17:56:07;;;;;;;;;6.67;6.67;;;;;;;;5052331;28;28461;-87
2022/08/16 17:58:33;;;;;;;;;8.33;8.33;;;;;;;;5049497;28;28530;-87
2022/08/16 18:01:00;;;;;;;;;9.00;8.00;;;;;;;;5040404;28;28605;-90
2022/08/16 18:03:28;;;;;;;;;10.33;8.33;;;;;;;;5051818;28;28557;-91
2022/08/16 18:05:53;;;;;;;;;8.33;7.00;;;;;;;;5050870;28;28556;-89
2022/08/16 18:08:20;;;;;;;;;9.67;8.67;;;;;;;;5057584;28;29056;-89
2022/08/16 18:10:45;;;;;;;;;9.33;8.00;;;;;;;;5046531;28;28377;-88
2022/08/16 18:13:10;;;;;;;;;8.67;8.67;;;;;;;;5071644;28;9793;-88
2022/08/16 18:15:39;;;;;;;;;8.33;8.33;;;;;;;;5051444;28;28591;-88
2022/08/16 18:18:04;;;;;;;;;9.67;9.67;;;;;;;;5052031;28;28537;-90
2022/08/16 18:23:15;;;;;;;;;8.67;7.33;;;;;;;;5051780;28;28839;-90
2022/08/16 18:25:45;;;;;;;;;9.00;9.00;;;;;;;;5051586;28;28539;-91
2022/08/16 18:28:10;;;;;;;;;11.33;10.33;;;;;;;;5066815;28;30520;-89
2022/08/16 18:30:35;;;;;;;;;12.00;12.00;;;;;;;;5060370;28;28945;-89
2022/08/16 18:33:00;;;;;;;;;9.00;9.00;;;;;;;;5050727;28;28324;-88
2022/08/16 18:35:26;;;;;;;;;11.00;10.33;;;;;;;;5049592;28;28447;-89
2022/08/16 18:37:51;;;;;;;;;13.33;11.33;;;;;;;;5049439;28;28546;-89
2022/08/16 18:40:17;;;;;;;;;9.67;9.00;;;;;;;;5047806;28;28849;-87
2022/08/16 18:42:56;;;;;;;;;11.33;10.33;;;;;;;;5050479;28;28490;-90
2022/08/16 18:45:22;;;;;;;;;10.00;10.00;;;;;;;;5065614;28;28448;-89
2022/08/16 18:47:48;;;;;;;;;10.33;9.33;;;;;;;;5050265;28;29618;-88
2022/08/16 18:50:13;;;;;;;;;10.00;10.00;;;;;;;;5054194;28;28571;-90
2022/08/16 18:52:46;;;;;;;;;11.00;10.67;;;;;;;;5047096;28;28575;-89
2022/08/16 18:55:11;;;;;;;;;9.00;9.00;;;;;;;;5064662;28;28598;-90
2022/08/16 18:57:36;;;;;;;;;13.33;11.67;;;;;;;;5066674;28;30349;-90
2022/08/16 19:00:02;;;;;;;;;14.00;12.00;;;;;;;;5059684;28;37703;-88
2022/08/16 19:02:27;;;;;;;;;10.00;10.00;;;;;;;;5062683;28;42773;-89
2022/08/16 19:04:53;;;;;;;;;10.33;10.33;;;;;;;;5050572;28;45311;-89
2022/08/16 19:07:18;;;;;;;;;12.00;11.33;;;;;;;;5032989;28;48189;-88
2022/08/16 19:09:43;;;;;;;;;10.33;9.67;;;;;;;;5033684;28;45535;-89
2022/08/16 19:12:08;;;;;;;;;12.67;11.00;;;;;;;;5034564;28;45290;-89
2022/08/16 19:14:33;;;;;;;;;15.33;14.67;;;;;;;;5033275;28;45773;-88
2022/08/16 19:16:59;;;;;;;;;11.00;11.00;;;;;;;;5032024;28;47456;-88
2022/08/16 19:19:24;;;;;;;;;13.33;13.33;;;;;;;;5032226;28;45372;-87
2022/08/16 19:21:49;;;;;;;;;13.67;12.33;;;;;;;;5049073;28;46747;-89
2022/08/16 19:24:14;;;;;;;;;13.67;12.33;;;;;;;;5033650;28;45744;-88
2022/08/16 19:26:42;;;;;;;;;12.33;11.67;;;;;;;;5049057;28;47544;-88
2022/08/16 19:29:07;;;;;;;;;17.67;16.00;;;;;;;;5033264;28;45911;-87
2022/08/16 19:31:32;;;;;;;;;14.67;14.33;;;;;;;;5032517;28;45722;-88
2022/08/16 19:33:58;;;;;;;;;14.67;12.00;;;;;;;;5033478;28;45797;-86
2022/08/16 19:36:24;;;;;;;;;15.00;15.00;;;;;;;;5048754;28;47925;-89
2022/08/16 19:38:49;;;;;;;;;14.00;14.00;;;;;;;;5032094;28;45550;-89
2022/08/16 19:41:14;;;;;;;;;16.00;15.67;;;;;;;;5034667;28;45423;-87
2022/08/16 19:43:40;;;;;;;;;17.67;17.33;;;;;;;;5033641;28;45439;-85
2022/08/16 19:46:05;;;;;;;;;16.67;16.67;;;;;;;;5033357;28;46343;-87